Time;durP1;ratioP1;P1;durP2;ratioP2;P2;SDS_P1;SDS_P2;PMS_P1;PMS_P2;Temp;Humidity;BMP_temperature;BMP_pressure;BME280_temperature;BME280_humidity;BME280_pressure;Samples;Min_cycle;Max_cycle;Signal;HPM_P1;HPM_P2
2022/09/14 00:00:46;;;;;;;7.33;3.73;;;;;;;19.06;90.26;97783.38;4919894;28;20316;-52
2022/09/14 00:03:14;;;;;;;8.07;3.20;;;;;;;19.03;90.19;97776.69;4913170;29;20233;-50
2022/09/14 00:05:42;;;;;;;4.50;2.90;;;;;;;19.00;90.44;97777.16;4918233;28;20328;-50
2022/09/14 00:08:09;;;;;;;11.03;3.50;;;;;;;19.00;90.21;97771.03;4915194;28;20229;-50
2022/09/14 00:10:38;;;;;;;4.93;2.93;;;;;;;18.98;90.57;97765.19;4918689;28;20307;-53
2022/09/14 00:13:05;;;;;;;4.77;3.40;;;;;;;18.97;90.63;97758.28;4914364;28;20243;-50
2022/09/14 00:15:35;;;;;;;6.50;3.20;;;;;;;18.95;90.67;97755.03;4916645;29;20245;-53
2022/09/14 00:18:02;;;;;;;5.03;3.20;;;;;;;18.95;90.91;97741.78;4913257;28;20242;-51
2022/09/14 00:20:29;;;;;;;5.47;3.03;;;;;;;18.96;90.61;97746.91;4916000;28;20246;-51
2022/09/14 00:22:57;;;;;;;4.43;3.33;;;;;;;18.97;90.69;97745.88;4917472;28;20653;-50
2022/09/14 00:25:25;;;;;;;7.97;3.23;;;;;;;18.98;91.05;97739.56;4916260;28;20581;-51
2022/09/14 00:27:52;;;;;;;4.30;2.93;;;;;;;19.00;91.17;97737.47;4915923;29;20245;-51
2022/09/14 00:30:19;;;;;;;8.37;3.30;;;;;;;19.03;92.13;97752.91;4913851;28;20232;-53
2022/09/14 00:32:45;;;;;;;6.50;3.03;;;;;;;19.02;93.18;97739.88;4918345;28;20240;-50
2022/09/14 00:35:12;;;;;;;4.53;3.50;;;;;;;19.00;93.99;97745.41;4915160;28;20241;-53
2022/09/14 00:37:39;;;;;;;5.10;3.17;;;;;;;19.00;95.11;97740.13;4918686;28;20238;-53
2022/09/14 00:40:09;;;;;;;6.73;3.63;;;;;;;18.98;96.34;97752.78;4913406;28;20237;-50
2022/09/14 00:42:36;;;;;;;12.50;4.33;;;;;;;18.95;97.44;97758.47;4917747;29;20700;-51
2022/09/14 00:45:11;;;;;;;6.77;3.23;;;;;;;18.94;98.41;97764.81;4915563;28;20533;-49
2022/09/14 00:47:37;;;;;;;8.80;3.63;;;;;;;18.90;99.54;97771.56;4918069;29;20583;-53
2022/09/14 00:50:05;;;;;;;6.07;3.37;;;;;;;18.85;100.00;97779.38;4913873;29;20469;-53
2022/09/14 00:52:36;;;;;;;8.67;4.07;;;;;;;18.84;100.00;97789.13;4917079;28;20257;-51
2022/09/14 00:55:08;;;;;;;7.87;3.43;;;;;;;18.81;100.00;97802.81;4911290;28;20241;-50
2022/09/14 00:57:38;;;;;;;12.10;3.77;;;;;;;18.81;100.00;97813.38;4916655;28;20756;-50
2022/09/14 01:00:08;;;;;;;14.60;5.33;;;;;;;18.73;100.00;97834.84;4914303;28;20753;-50
2022/09/14 01:02:35;;;;;;;9.80;5.17;;;;;;;18.69;100.00;97844.25;4914392;29;20818;-51
2022/09/14 01:05:02;;;;;;;6.70;4.80;;;;;;;18.67;100.00;97855.06;4911234;28;20247;-50
2022/09/14 01:07:44;;;;;;;18.50;5.60;;;;;;;18.61;100.00;97840.06;4917702;29;20254;-49
2022/09/14 01:10:27;;;;;;;8.07;5.03;;;;;;;18.64;100.00;97815.03;4915550;28;20632;-50
2022/09/14 01:13:05;;;;;;;6.00;4.57;;;;;;;18.63;100.00;97801.03;4919707;28;20242;-53
2022/09/14 01:15:42;;;;;;;9.33;5.60;;;;;;;18.65;100.00;97792.84;4916731;28;20576;-52
2022/09/14 01:18:15;;;;;;;11.67;6.03;;;;;;;18.62;100.00;97788.00;4917329;29;20232;-52
2022/09/14 01:20:48;;;;;;;7.73;5.13;;;;;;;18.59;100.00;97789.28;4918575;28;20725;-52
2022/09/14 01:23:21;;;;;;;10.73;5.13;;;;;;;18.58;100.00;97780.53;4917938;28;20244;-51
2022/09/14 01:26:23;;;;;;;10.17;5.33;;;;;;;18.57;100.00;97780.75;4918915;28;20264;-52
2022/09/14 01:28:56;;;;;;;7.90;4.70;;;;;;;18.55;100.00;97762.47;4918175;28;20250;-51
2022/09/14 01:31:29;;;;;;;8.97;4.33;;;;;;;18.52;100.00;97755.03;4918834;29;20787;-52
2022/09/14 01:34:08;;;;;;;14.90;5.43;;;;;;;18.49;100.00;97767.88;4922901;28;20267;-52
2022/09/14 01:36:37;;;;;;;5.87;4.87;;;;;;;18.50;100.00;97780.03;4918187;28;20308;-50
2022/09/14 01:39:04;;;;;;;10.37;5.33;;;;;;;18.43;100.00;97796.00;4918117;28;20283;-52
2022/09/14 01:41:33;;;;;;;11.73;6.50;;;;;;;18.34;100.00;97792.81;4919333;29;20306;-51
2022/09/14 01:44:08;;;;;;;10.70;6.27;;;;;;;18.28;100.00;97815.66;4916738;28;20275;-51
2022/09/14 01:46:39;;;;;;;9.93;8.27;;;;;;;18.11;100.00;97835.75;4920226;29;20245;-50
2022/09/14 01:49:11;;;;;;;13.33;10.37;;;;;;;18.04;100.00;97837.66;4915259;28;20258;-52
2022/09/14 01:51:42;;;;;;;12.70;10.10;;;;;;;17.93;100.00;97845.25;4919230;28;20239;-51
2022/09/14 01:54:13;;;;;;;16.90;11.07;;;;;;;17.87;100.00;97840.84;4917261;28;20251;-52
2022/09/14 01:56:48;;;;;;;15.17;11.70;;;;;;;17.78;100.00;97840.31;4919968;28;20576;-50
2022/09/14 01:59:19;;;;;;;16.17;11.47;;;;;;;17.78;100.00;97847.41;4904524;29;20587;-51
2022/09/14 02:01:49;;;;;;;14.00;10.47;;;;;;;17.76;100.00;97830.97;4906717;29;20227;-53
2022/09/14 02:04:21;;;;;;;18.93;11.73;;;;;;;17.72;100.00;97825.34;4913849;29;20227;-50
2022/09/14 02:06:49;;;;;;;13.40;11.33;;;;;;;17.74;100.00;97817.19;4920101;28;20318;-51
2022/09/14 02:09:25;;;;;;;17.77;12.00;;;;;;;17.67;100.00;97806.72;4917806;28;20335;-52
2022/09/14 02:11:52;;;;;;;17.00;11.63;;;;;;;17.66;100.00;97799.81;4919046;28;20244;-51
2022/09/14 02:14:20;;;;;;;13.33;10.80;;;;;;;17.67;100.00;97785.59;4917081;28;20234;-52
2022/09/14 02:16:47;;;;;;;16.47;11.73;;;;;;;17.66;100.00;97784.78;4917726;28;20243;-51
2022/09/14 02:19:14;;;;;;;13.07;10.70;;;;;;;17.67;100.00;97786.41;4918490;28;20466;-51
2022/09/14 02:21:41;;;;;;;11.57;9.73;;;;;;;17.70;100.00;97778.03;4917046;29;20624;-50
2022/09/14 02:24:09;;;;;;;17.07;11.67;;;;;;;17.71;100.00;97770.94;4918266;28;20695;-50
2022/09/14 02:26:36;;;;;;;15.77;11.97;;;;;;;17.73;100.00;97768.06;4921129;29;20232;-51
2022/09/14 02:29:04;;;;;;;15.87;11.43;;;;;;;17.74;100.00;97752.03;4916586;29;20575;-51
2022/09/14 02:31:44;;;;;;;13.33;9.40;;;;;;;17.81;100.00;97749.31;4919134;28;20645;-51
2022/09/14 02:34:20;;;;;;;9.67;8.67;;;;;;;17.79;100.00;97736.34;4917922;28;20315;-51
2022/09/14 02:36:50;;;;;;;9.40;7.77;;;;;;;17.82;100.00;97719.25;4921965;29;20376;-51
2022/09/14 02:39:26;;;;;;;11.07;9.83;;;;;;;17.77;100.00;97729.66;4916602;28;20250;-50
2022/09/14 02:42:00;;;;;;;9.83;7.83;;;;;;;17.79;100.00;97719.69;4920088;28;20239;-50
2022/09/14 02:44:34;;;;;;;9.77;8.50;;;;;;;17.80;100.00;97713.38;4916750;28;20243;-52
2022/09/14 02:47:07;;;;;;;7.53;6.30;;;;;;;17.81;100.00;97707.91;4914847;28;20262;-51
2022/09/14 02:49:43;;;;;;;7.47;6.53;;;;;;;17.78;100.00;97703.06;4920443;28;20752;-50
2022/09/14 02:52:17;;;;;;;6.83;5.17;;;;;;;17.75;100.00;97705.31;4916989;28;20772;-51
2022/09/14 02:54:50;;;;;;;6.13;5.40;;;;;;;17.76;100.00;97688.47;4919102;28;20289;-51
2022/09/14 02:57:17;;;;;;;6.07;5.47;;;;;;;17.76;100.00;97673.44;4917215;28;20247;-53
2022/09/14 02:59:43;;;;;;;5.03;4.50;;;;;;;17.80;100.00;97673.78;4920855;29;20251;-51
2022/09/14 03:04:55;;;;;;;5.63;4.10;;;;;;;17.93;100.00;97675.47;5208110;23;20219;-53
2022/09/14 03:07:24;;;;;;;5.07;3.60;;;;;;;18.06;100.00;97659.47;4911577;28;20597;-54
2022/09/14 03:09:54;;;;;;;8.13;3.60;;;;;;;18.22;100.00;97670.47;4922473;28;20242;-54
2022/09/14 03:12:24;;;;;;;5.60;3.43;;;;;;;18.31;100.00;97670.97;4931508;28;20242;-55
2022/09/14 03:14:54;;;;;;;4.63;3.30;;;;;;;18.43;100.00;97662.03;4918382;28;20305;-54
2022/09/14 03:17:21;;;;;;;6.30;3.30;;;;;;;18.68;100.00;97650.50;4915997;29;20250;-53
2022/09/14 03:19:48;;;;;;;7.60;3.00;;;;;;;18.89;100.00;97664.19;4921616;28;20238;-51
2022/09/14 03:22:17;;;;;;;7.63;3.30;;;;;;;18.92;100.00;97655.00;4912107;28;20221;-52
2022/09/14 03:24:44;;;;;;;4.03;3.00;;;;;;;18.97;100.00;97645.38;4930496;28;20258;-52
2022/09/14 03:27:13;;;;;;;3.33;3.03;;;;;;;18.99;100.00;97651.25;4885002;29;20222;-54
2022/09/14 03:29:40;;;;;;;4.97;2.97;;;;;;;19.14;100.00;97653.44;4905816;28;20271;-55
2022/09/14 03:32:09;;;;;;;5.13;3.43;;;;;;;19.18;100.00;97651.09;4905174;28;20238;-52
2022/09/14 03:34:38;;;;;;;5.73;2.70;;;;;;;19.18;100.00;97659.03;4877034;28;20235;-53
2022/09/14 03:37:11;;;;;;;2.97;2.50;;;;;;;19.24;100.00;97646.75;4854952;28;20234;-54
2022/09/14 03:39:49;;;;;;;4.30;2.77;;;;;;;19.36;100.00;97658.13;4889313;28;20239;-54
2022/09/14 03:42:23;;;;;;;6.90;2.33;;;;;;;19.36;100.00;97660.78;4903785;28;20220;-54
2022/09/14 03:44:50;;;;;;;2.70;2.40;;;;;;;19.35;100.00;97667.09;4917156;28;20239;-51
2022/09/14 03:47:17;;;;;;;3.77;2.30;;;;;;;19.37;100.00;97669.50;4933266;28;20238;-51
2022/09/14 03:49:43;;;;;;;3.07;2.73;;;;;;;19.45;100.00;97667.31;4936361;28;20319;-54
2022/09/14 03:52:10;;;;;;;6.97;3.17;;;;;;;19.46;100.00;97671.59;4933849;28;20786;-51
2022/09/14 03:54:37;;;;;;;4.90;3.03;;;;;;;19.58;100.00;97678.72;4937258;28;20885;-51
2022/09/14 03:57:06;;;;;;;5.13;3.00;;;;;;;19.55;100.00;97679.97;4934459;28;20235;-51
2022/09/14 03:59:33;;;;;;;4.30;2.80;;;;;;;19.55;100.00;97674.66;4936835;28;20322;-51
2022/09/14 04:02:00;;;;;;;5.33;2.90;;;;;;;19.61;100.00;97678.22;4937545;28;20224;-51
2022/09/14 04:04:27;;;;;;;5.50;2.93;;;;;;;19.60;100.00;97669.47;4934728;28;20267;-50
2022/09/14 04:06:54;;;;;;;5.10;2.97;;;;;;;19.58;100.00;97671.56;4935129;28;20641;-52
2022/09/14 04:09:21;;;;;;;3.90;3.10;;;;;;;19.55;100.00;97673.88;4934346;28;20248;-54
2022/09/14 04:11:48;;;;;;;4.77;3.33;;;;;;;19.52;100.00;97663.75;4936908;28;20323;-52
2022/09/14 04:14:16;;;;;;;6.90;3.57;;;;;;;19.40;100.00;97674.34;4933661;28;20323;-53
2022/09/14 04:16:43;;;;;;;6.70;3.17;;;;;;;19.44;100.00;97675.47;4936052;28;20444;-51
2022/09/14 04:19:11;;;;;;;5.57;3.60;;;;;;;19.30;100.00;97696.09;4934625;28;20230;-54
2022/09/14 04:21:39;;;;;;;8.73;5.27;;;;;;;19.20;100.00;97693.22;4935029;29;20236;-51
2022/09/14 04:24:05;;;;;;;9.20;6.50;;;;;;;19.01;100.00;97704.72;4933211;28;20273;-51
2022/09/14 04:26:33;;;;;;;10.23;7.50;;;;;;;18.84;100.00;97706.38;4937939;28;20294;-51
2022/09/14 04:29:00;;;;;;;9.90;7.30;;;;;;;18.74;100.00;97691.06;4938359;28;20233;-50
2022/09/14 04:31:28;;;;;;;9.60;7.23;;;;;;;18.64;100.00;97693.44;4933568;29;20295;-51
2022/09/14 04:33:55;;;;;;;13.87;9.63;;;;;;;18.62;100.00;97698.97;4936292;28;20295;-52
2022/09/14 04:36:26;;;;;;;16.53;11.73;;;;;;;18.47;100.00;97682.72;4931512;29;20228;-51
2022/09/14 04:38:56;;;;;;;12.70;9.70;;;;;;;18.42;100.00;97697.41;4937131;28;20469;-50
2022/09/14 04:41:23;;;;;;;14.20;11.30;;;;;;;18.37;100.00;97699.91;4935332;28;20953;-52
2022/09/14 04:43:51;;;;;;;14.23;10.20;;;;;;;18.37;100.00;97707.06;4936659;28;20246;-50
2022/09/14 04:46:20;;;;;;;19.17;13.10;;;;;;;18.26;100.00;97709.41;4934003;28;20281;-51
2022/09/14 04:48:49;;;;;;;20.17;13.97;;;;;;;18.21;100.00;97708.47;4936881;28;20239;-51
2022/09/14 04:51:17;;;;;;;20.33;13.83;;;;;;;18.18;100.00;97722.13;4935324;28;20227;-53
2022/09/14 04:53:45;;;;;;;16.37;13.03;;;;;;;18.21;100.00;97711.09;4938582;28;20285;-50
2022/09/14 04:56:14;;;;;;;16.10;13.47;;;;;;;18.19;100.00;97721.09;4934201;28;21290;-51
2022/09/14 04:58:43;;;;;;;16.70;13.73;;;;;;;18.19;100.00;97719.25;4938333;28;20231;-51
2022/09/14 05:01:11;;;;;;;18.47;13.27;;;;;;;18.26;100.00;97727.91;4934679;28;20773;-51
2022/09/14 05:03:39;;;;;;;14.90;12.27;;;;;;;18.21;100.00;97729.59;4937898;28;20236;-51
2022/09/14 05:06:09;;;;;;;15.63;12.67;;;;;;;18.20;100.00;97739.38;4933829;28;20243;-51
2022/09/14 05:08:37;;;;;;;15.07;12.93;;;;;;;18.20;100.00;97734.09;4934178;28;21464;-51
2022/09/14 05:11:05;;;;;;;19.83;14.30;;;;;;;18.19;100.00;97740.41;4932370;28;20317;-51
2022/09/14 05:13:32;;;;;;;16.77;12.63;;;;;;;18.21;100.00;97740.16;4935335;28;20313;-51
2022/09/14 05:16:05;;;;;;;15.73;13.47;;;;;;;18.27;100.00;97721.59;4934620;28;20282;-51
2022/09/14 05:18:53;;;;;;;16.57;13.20;;;;;;;18.25;100.00;97725.47;4931885;28;20247;-51
2022/09/14 05:21:22;;;;;;;18.27;14.23;;;;;;;18.25;100.00;97707.00;4934535;28;20231;-54
2022/09/14 05:23:54;;;;;;;22.30;14.63;;;;;;;18.23;100.00;97707.22;4936845;28;21038;-52
2022/09/14 05:26:21;;;;;;;21.10;13.37;;;;;;;18.25;100.00;97702.53;4930771;29;20326;-52
2022/09/14 05:28:50;;;;;;;16.03;13.40;;;;;;;18.28;100.00;97698.63;4937391;29;20254;-51
2022/09/14 05:31:17;;;;;;;19.60;13.57;;;;;;;18.31;100.00;97698.16;4934171;28;20813;-50
2022/09/14 05:33:43;;;;;;;18.13;13.53;;;;;;;18.35;100.00;97691.41;4935821;28;21161;-52
2022/09/14 05:36:10;;;;;;;19.30;14.47;;;;;;;18.39;100.00;97700.50;4933460;28;20310;-51
2022/09/14 05:38:39;;;;;;;19.97;15.10;;;;;;;18.41;100.00;97708.22;4936992;28;20240;-50
2022/09/14 05:41:25;;;;;;;20.27;12.37;;;;;;;18.46;100.00;97697.78;4934778;28;20314;-52
2022/09/14 05:43:51;;;;;;;20.80;12.40;;;;;;;18.48;100.00;97702.84;4923217;29;20243;-53
2022/09/14 05:46:19;;;;;;;15.33;10.00;;;;;;;18.53;100.00;97702.97;4932571;28;20235;-51
2022/09/14 05:48:50;;;;;;;12.97;8.87;;;;;;;18.58;100.00;97698.59;4934768;28;20235;-52
2022/09/14 05:51:18;;;;;;;9.70;7.70;;;;;;;18.67;100.00;97709.66;4934751;28;20294;-50
2022/09/14 05:53:49;;;;;;;13.23;9.33;;;;;;;18.77;100.00;97721.53;4936362;28;20242;-52
2022/09/14 05:56:16;;;;;;;20.30;15.53;;;;;;;18.81;100.00;97720.06;4934365;28;20227;-50
2022/09/14 05:58:43;;;;;;;11.80;9.87;;;;;;;18.88;100.00;97733.97;4939585;29;20293;-50
2022/09/14 06:01:12;;;;;;;12.07;4.80;;;;;;;18.89;100.00;97723.16;4937187;28;20220;-52
2022/09/14 06:03:39;;;;;;;9.00;5.50;;;;;;;19.01;100.00;97720.59;4940411;28;20240;-54
2022/09/14 06:06:07;;;;;;;11.80;6.10;;;;;;;19.11;100.00;97720.00;4939255;28;20739;-54
2022/09/14 06:08:34;;;;;;;13.90;7.97;;;;;;;19.30;100.00;97722.56;4892705;29;20228;-54
2022/09/14 06:11:23;;;;;;;12.03;7.67;;;;;;;19.41;100.00;97734.16;4937595;29;20369;-54
2022/09/14 06:13:50;;;;;;;8.53;5.20;;;;;;;19.49;100.00;97720.59;4938848;28;20267;-50
2022/09/14 06:16:19;;;;;;;11.17;6.20;;;;;;;19.59;100.00;97720.81;4936992;28;20247;-51
2022/09/14 06:18:46;;;;;;;9.77;5.20;;;;;;;19.66;100.00;97723.31;4940329;29;20248;-51
2022/09/14 06:21:16;;;;;;;9.37;5.60;;;;;;;19.78;100.00;97720.69;4937413;28;20782;-50
2022/09/14 06:23:43;;;;;;;7.53;4.30;;;;;;;19.88;100.00;97718.25;4938945;28;20728;-51
2022/09/14 06:26:10;;;;;;;6.67;3.73;;;;;;;19.97;100.00;97709.97;4938324;28;20286;-53
2022/09/14 06:28:39;;;;;;;6.00;4.67;;;;;;;20.09;100.00;97710.75;4938240;28;20636;-51
2022/09/14 06:31:08;;;;;;;11.77;8.27;;;;;;;20.15;100.00;97708.97;4935296;29;20242;-51
2022/09/14 06:33:35;;;;;;;7.87;5.53;;;;;;;20.27;100.00;97708.94;4931751;28;20238;-52
2022/09/14 06:36:06;;;;;;;11.57;6.00;;;;;;;20.23;100.00;97711.25;4927355;29;20696;-53
2022/09/14 06:38:33;;;;;;;9.30;5.03;;;;;;;20.27;100.00;97709.75;4939545;28;20245;-51
2022/09/14 06:41:01;;;;;;;9.67;4.13;;;;;;;20.26;100.00;97708.13;4938084;28;20231;-51
2022/09/14 06:43:30;;;;;;;6.77;3.87;;;;;;;20.30;100.00;97705.81;4937281;28;20247;-53
2022/09/14 06:46:04;;;;;;;9.47;6.23;;;;;;;20.36;99.88;97712.81;4941929;29;20224;-51
2022/09/14 06:48:33;;;;;;;8.63;4.77;;;;;;;20.35;100.00;97717.31;4936275;28;20694;-51
2022/09/14 06:51:00;;;;;;;7.33;3.90;;;;;;;20.30;100.00;97722.53;4938020;28;20229;-52
2022/09/14 06:53:27;;;;;;;6.50;5.80;;;;;;;20.31;100.00;97713.53;4937688;28;20299;-51
2022/09/14 06:55:58;;;;;;;8.57;4.10;;;;;;;20.41;100.00;97706.81;4939967;29;20593;-54
2022/09/14 06:58:25;;;;;;;7.27;3.47;;;;;;;20.43;99.36;97713.47;4937916;28;20308;-51
2022/09/14 07:00:52;;;;;;;10.13;3.73;;;;;;;20.45;99.65;97715.91;4938642;28;20246;-53
2022/09/14 07:03:20;;;;;;;6.20;3.93;;;;;;;20.53;98.91;97727.94;4933655;28;20222;-52
2022/09/14 07:05:47;;;;;;;8.60;3.47;;;;;;;20.64;99.25;97729.75;4939093;28;20296;-51
2022/09/14 07:08:13;;;;;;;5.73;3.63;;;;;;;20.76;97.56;97722.53;4935023;28;20257;-51
2022/09/14 07:10:41;;;;;;;8.00;3.40;;;;;;;20.97;95.78;97724.75;4935300;29;20256;-51
2022/09/14 07:13:08;;;;;;;5.60;3.00;;;;;;;21.16;94.61;97730.63;4936638;28;20388;-51
2022/09/14 07:15:35;;;;;;;4.07;2.80;;;;;;;21.33;92.94;97722.66;4941717;28;20244;-53
2022/09/14 07:18:03;;;;;;;4.70;3.10;;;;;;;21.48;92.62;97724.72;4917629;29;20535;-51
2022/09/14 07:20:31;;;;;;;14.40;10.07;;;;;;;21.65;91.81;97716.75;4939179;28;20245;-51
2022/09/14 07:22:58;;;;;;;8.23;4.20;;;;;;;21.57;92.29;97712.63;4925011;28;20580;-51
2022/09/14 07:25:25;;;;;;;5.47;3.40;;;;;;;21.45;91.51;97722.53;4922281;29;20707;-51
2022/09/14 07:27:51;;;;;;;6.13;3.53;;;;;;;21.32;93.88;97729.00;4937743;28;20709;-51
2022/09/14 07:30:18;;;;;;;13.00;3.30;;;;;;;21.21;94.47;97726.19;4934179;28;20329;-50
2022/09/14 07:32:45;;;;;;;9.03;3.17;;;;;;;21.30;93.93;97731.88;4938761;28;20241;-52
2022/09/14 07:35:11;;;;;;;8.10;3.60;;;;;;;21.42;92.72;97734.47;4935018;28;20296;-53
2022/09/14 07:37:39;;;;;;;6.13;2.67;;;;;;;21.52;92.39;97739.91;4936646;28;20247;-53
2022/09/14 07:40:08;;;;;;;4.33;2.73;;;;;;;21.58;90.96;97735.47;4936352;28;20231;-51
2022/09/14 07:42:36;;;;;;;5.83;2.77;;;;;;;21.84;91.17;97743.81;4938803;28;20240;-52
2022/09/14 07:45:04;;;;;;;8.50;3.37;;;;;;;21.91;86.96;97747.09;4933204;28;20587;-51
2022/09/14 07:47:31;;;;;;;5.20;2.53;;;;;;;22.01;85.31;97748.28;4936975;28;20248;-53
2022/09/14 07:49:57;;;;;;;9.53;3.70;;;;;;;22.24;85.13;97756.00;4924755;29;20230;-51
2022/09/14 07:52:24;;;;;;;3.53;2.43;;;;;;;22.32;84.32;97761.91;4932556;28;20244;-51
2022/09/14 07:54:52;;;;;;;6.70;3.00;;;;;;;22.21;83.30;97771.63;4935947;28;20260;-52
2022/09/14 07:57:19;;;;;;;9.73;2.30;;;;;;;21.97;84.76;97788.63;4936866;28;20228;-54
2022/09/14 07:59:45;;;;;;;3.80;2.37;;;;;;;21.85;85.75;97795.09;4938746;28;20247;-50
2022/09/14 08:02:12;;;;;;;3.97;2.40;;;;;;;21.66;85.77;97782.09;4933589;28;20236;-51
2022/09/14 08:04:39;;;;;;;8.23;3.00;;;;;;;21.49;86.96;97784.72;4937566;28;20234;-54
2022/09/14 08:07:06;;;;;;;8.27;2.90;;;;;;;21.49;87.62;97792.69;4936810;28;20240;-52
2022/09/14 08:09:33;;;;;;;5.57;3.20;;;;;;;21.39;87.95;97794.13;4935864;28;20295;-51
2022/09/14 08:12:02;;;;;;;4.83;2.73;;;;;;;21.41;87.29;97795.75;4933758;28;20233;-51
2022/09/14 08:14:28;;;;;;;4.00;2.50;;;;;;;21.44;86.94;97806.72;4932269;28;20251;-51
2022/09/14 08:16:55;;;;;;;8.20;2.73;;;;;;;21.51;88.17;97817.16;4935606;28;20343;-51
2022/09/14 08:19:21;;;;;;;3.90;2.47;;;;;;;21.53;87.11;97813.22;4932915;28;20375;-52
2022/09/14 08:21:48;;;;;;;3.10;2.50;;;;;;;21.65;86.04;97815.00;4936282;29;20259;-51
2022/09/14 08:24:17;;;;;;;8.00;3.10;;;;;;;21.88;87.35;97806.03;4933993;28;20581;-53
2022/09/14 08:26:44;;;;;;;4.07;2.23;;;;;;;22.16;86.27;97800.81;4928058;28;20324;-51
2022/09/14 08:29:13;;;;;;;4.50;2.27;;;;;;;22.39;83.22;97794.44;4934525;28;20236;-54
2022/09/14 08:31:41;;;;;;;5.27;2.40;;;;;;;22.62;82.37;97792.59;4925487;28;20255;-54
2022/09/14 08:34:08;;;;;;;5.70;2.60;;;;;;;22.76;81.08;97809.75;4923399;28;20241;-52
2022/09/14 08:36:37;;;;;;;4.97;2.57;;;;;;;22.80;81.91;97816.19;4935064;29;20232;-53
2022/09/14 08:39:05;;;;;;;5.80;2.60;;;;;;;22.87;80.71;97812.53;4933922;28;20236;-51
2022/09/14 08:41:35;;;;;;;5.13;2.27;;;;;;;23.06;79.49;97816.44;4937041;28;20240;-54
2022/09/14 08:44:10;;;;;;;5.10;2.30;;;;;;;23.08;76.61;97806.34;4932375;28;20283;-54
2022/09/14 08:46:43;;;;;;;4.00;2.57;;;;;;;23.17;78.06;97808.53;4937015;29;20240;-51
2022/09/14 08:49:16;;;;;;;6.60;2.50;;;;;;;23.22;77.82;97805.94;4933279;28;20235;-54
2022/09/14 08:51:42;;;;;;;5.93;2.40;;;;;;;23.29;77.43;97815.31;4932283;28;20233;-54
2022/09/14 08:54:10;;;;;;;5.90;2.17;;;;;;;23.51;74.86;97803.78;4931408;28;20747;-52
2022/09/14 08:56:41;;;;;;;5.60;2.60;;;;;;;23.77;73.26;97811.94;4935780;28;20255;-52
2022/09/14 08:59:23;;;;;;;3.70;2.60;;;;;;;24.07;75.27;97820.38;4935100;29;20444;-54
2022/09/14 09:02:02;;;;;;;4.33;2.53;;;;;;;24.12;74.31;97823.88;4935166;29;20583;-54
2022/09/14 09:04:41;;;;;;;2.83;2.30;;;;;;;24.30;71.43;97822.63;4925425;29;20344;-53
2022/09/14 09:07:13;;;;;;;5.43;3.00;;;;;;;24.08;71.57;97819.31;4930940;28;20297;-52
2022/09/14 09:09:44;;;;;;;8.03;2.40;;;;;;;24.36;70.07;97826.13;4933788;29;20320;-51
2022/09/14 09:12:17;;;;;;;4.73;2.33;;;;;;;24.31;71.98;97818.09;4932467;28;20728;-52
2022/09/14 09:14:49;;;;;;;4.30;2.27;;;;;;;24.47;71.80;97795.75;4934069;28;20343;-56
2022/09/14 09:17:20;;;;;;;6.37;2.17;;;;;;;24.19;71.55;97797.00;4930394;28;20232;-53
2022/09/14 09:19:56;;;;;;;5.23;2.70;;;;;;;24.37;71.19;97789.59;4934495;29;20720;-51
2022/09/14 09:22:25;;;;;;;4.50;2.23;;;;;;;24.39;71.03;97790.91;4934556;29;20326;-53
2022/09/14 09:24:54;;;;;;;7.23;2.47;;;;;;;24.57;71.04;97794.19;4934810;28;20240;-51
2022/09/14 09:27:23;;;;;;;3.60;2.20;;;;;;;24.56;69.15;97788.03;4932000;29;23731;-51
2022/09/14 09:29:49;;;;;;;4.50;2.10;;;;;;;24.67;65.15;97780.88;4934847;28;20573;-54
2022/09/14 09:32:20;;;;;;;9.20;2.30;;;;;;;24.64;66.92;97772.56;4934394;28;20638;-52
2022/09/14 09:35:08;;;;;;;3.10;2.40;;;;;;;24.53;69.35;97772.53;4931658;29;20242;-54
2022/09/14 09:37:50;;;;;;;2.93;1.90;;;;;;;24.57;66.87;97772.84;4938946;28;20235;-51
2022/09/14 09:40:20;;;;;;;2.70;2.10;;;;;;;24.60;67.51;97766.97;4935951;28;20250;-51
2022/09/14 09:43:05;;;;;;;4.23;2.20;;;;;;;24.47;66.89;97765.59;4937643;28;20251;-52
2022/09/14 09:45:47;;;;;;;5.53;2.03;;;;;;;24.00;70.14;97751.31;4938944;28;20240;-51
2022/09/14 09:48:17;;;;;;;7.77;2.43;;;;;;;24.22;70.03;97753.81;4936455;28;20241;-52
2022/09/14 09:50:49;;;;;;;9.10;2.23;;;;;;;24.49;69.26;97742.13;4941362;28;20241;-51
2022/09/14 09:53:18;;;;;;;4.00;1.90;;;;;;;24.81;66.53;97735.81;4937088;28;20277;-51
2022/09/14 09:55:48;;;;;;;7.40;2.37;;;;;;;24.72;68.83;97732.88;4939022;28;20232;-52
2022/09/14 09:58:33;;;;;;;5.70;2.30;;;;;;;24.82;67.05;97736.63;4934787;28;20224;-51
2022/09/14 10:01:02;;;;;;;7.40;2.17;;;;;;;24.83;68.06;97731.00;4937721;28;20284;-52
2022/09/14 10:03:34;;;;;;;6.07;2.60;;;;;;;24.95;67.60;97720.03;4931249;28;20296;-51
2022/09/14 10:06:03;;;;;;;4.50;2.30;;;;;;;25.05;66.81;97713.91;4938774;28;20249;-54
2022/09/14 10:08:33;;;;;;;6.00;2.00;;;;;;;25.19;66.19;97708.81;4935400;28;20326;-55
2022/09/14 10:11:01;;;;;;;3.87;2.10;;;;;;;25.17;67.40;97701.09;4938820;28;20790;-54
2022/09/14 10:13:31;;;;;;;6.27;2.30;;;;;;;25.24;64.80;97689.34;4938645;28;20240;-51
2022/09/14 10:16:14;;;;;;;2.93;2.10;;;;;;;25.15;64.98;97681.88;4938452;29;20289;-53
2022/09/14 10:18:48;;;;;;;6.13;2.40;;;;;;;25.17;62.92;97673.56;4934885;29;20772;-53
2022/09/14 10:21:16;;;;;;;5.40;1.90;;;;;;;25.54;63.10;97658.28;4934679;29;20239;-51
2022/09/14 10:23:43;;;;;;;4.13;2.13;;;;;;;25.68;64.34;97669.19;4937946;28;20331;-52
2022/09/14 10:26:27;;;;;;;3.90;1.97;;;;;;;25.87;60.03;97672.88;4935145;28;20223;-54
2022/09/14 10:28:54;;;;;;;5.40;1.90;;;;;;;25.68;60.73;97667.31;4937006;28;20237;-54
2022/09/14 10:31:27;;;;;;;4.10;1.70;;;;;;;25.47;61.67;97666.59;4931341;29;20836;-51
2022/09/14 10:33:57;;;;;;;5.40;2.17;;;;;;;25.16;62.71;97659.44;4937395;28;20739;-51
2022/09/14 10:36:28;;;;;;;3.43;1.80;;;;;;;25.45;61.95;97650.03;4936580;28;20224;-54
2022/09/14 10:39:00;;;;;;;4.50;2.00;;;;;;;25.60;62.09;97658.00;4938303;28;20256;-52
2022/09/14 10:41:35;;;;;;;6.33;1.87;;;;;;;25.35;62.47;97656.97;4935439;28;20281;-55
2022/09/14 10:44:23;;;;;;;5.67;2.07;;;;;;;25.42;62.17;97647.88;4925505;29;20245;-54
2022/09/14 10:47:10;;;;;;;5.10;2.00;;;;;;;25.56;61.68;97640.09;4937664;28;20457;-55
2022/09/14 10:49:49;;;;;;;3.87;1.63;;;;;;;25.71;62.28;97652.63;4935252;28;20791;-54
2022/09/14 10:52:22;;;;;;;4.67;2.20;;;;;;;25.69;61.73;97652.88;4932573;29;20243;-55
2022/09/14 10:55:14;;;;;;;6.77;2.23;;;;;;;25.74;61.33;97649.41;4935031;28;20321;-52
2022/09/14 10:57:48;;;;;;;3.57;1.80;;;;;;;25.68;61.69;97663.84;4933048;29;20229;-54
2022/09/14 11:00:18;;;;;;;5.90;2.33;;;;;;;25.81;60.76;97657.09;4933612;28;20265;-51
2022/09/14 11:03:04;;;;;;;3.83;1.67;;;;;;;25.55;62.37;97660.69;4938984;28;20228;-52
2022/09/14 11:05:36;;;;;;;4.40;2.73;;;;;;;25.39;62.32;97653.75;4938659;28;20237;-52
2022/09/14 11:08:12;;;;;;;5.80;2.30;;;;;;;25.63;61.35;97640.63;4918400;28;20232;-54
2022/09/14 11:10:51;;;;;;;4.10;2.20;;;;;;;26.11;61.48;97632.06;4938016;28;20277;-55
2022/09/14 11:13:34;;;;;;;7.27;2.70;;;;;;;26.32;60.31;97648.84;4933381;28;20223;-51
2022/09/14 11:16:14;;;;;;;4.30;2.07;;;;;;;26.39;58.87;97640.47;4934836;28;20867;-53
2022/09/14 11:18:50;;;;;;;3.33;2.13;;;;;;;26.33;59.57;97637.06;4937409;28;20233;-54
2022/09/14 11:21:24;;;;;;;5.70;2.20;;;;;;;26.52;59.23;97637.16;4934012;28;20304;-52
2022/09/14 11:23:55;;;;;;;6.57;2.30;;;;;;;26.44;60.40;97632.41;4936015;28;20241;-51
2022/09/14 11:26:30;;;;;;;4.40;1.90;;;;;;;26.14;59.11;97625.41;4933036;28;20239;-54
2022/09/14 11:29:07;;;;;;;6.33;2.10;;;;;;;26.09;60.68;97627.00;4937835;28;20322;-52
2022/09/14 11:31:39;;;;;;;4.13;2.30;;;;;;;25.86;59.34;97625.00;4934339;28;20239;-54
2022/09/14 11:34:15;;;;;;;6.00;2.37;;;;;;;25.42;63.20;97629.19;4932031;28;20237;-53
2022/09/14 11:36:47;;;;;;;5.17;2.17;;;;;;;25.13;62.84;97619.94;4937840;28;20235;-51
2022/09/14 11:39:20;;;;;;;6.17;2.20;;;;;;;24.76;65.16;97616.53;4935902;28;20263;-52
2022/09/14 11:41:52;;;;;;;5.80;2.60;;;;;;;24.35;66.12;97623.72;4936768;28;20329;-54
2022/09/14 11:44:24;;;;;;;4.67;2.40;;;;;;;24.21;67.76;97629.56;4933322;28;20739;-51